Impacts METAR Board
IDs:

KT35 - Cameron Muni, TX, US

Updated at: 0200 UTC 15 Aug 2020
Potential Impact None Slight Moderate High
Time 14/14Z 14/15Z 14/16Z 14/17Z 14/18Z 14/19Z 14/20Z 14/21Z 14/22Z 14/23Z 15/00Z 15/01Z 15/02Z
Temp83 88 91 94 98 100 102 103 103 103 101 98 94
Dewpt74 71 70 70 67 66 62 63 62 62 61 62 64
Altim29.95 29.95 29.96 29.94 29.92 29.90 29.88 29.85 29.82 29.81 29.81 29.82 29.83
VIS10 10 10 10 10 10 10 10 10 10 10 10 10
CIG-- -- -- -- -- -- -- -- -- -- -- -- --
CoverCLRCLRCLRCLRCLRCLRCLRCLRCLRCLRCLRCLRCLR
FltCatVFRVFRVFRVFRVFRVFRVFRVFRVFRVFRVFRVFRVFR
WX--------------------------
WDir220220210200230200140180150180160160160
WSpd11 12 11 10 9 10 3 10 6 9 7 6 5
WGst18 19 19 15 16 15 -- -- 15 -- -- -- --
Raw hourly METARs
KT35 141355Z AUTO 22011G18KT 10SM CLR 28/23 A2995 RMK AO2 T02830232 TSNO
KT35 141455Z AUTO 22012G19KT 10SM CLR 31/22 A2995 RMK AO2 T03110219 TSNO
KT35 141555Z AUTO 21011G19KT 10SM CLR 33/21 A2996 RMK AO2 T03280213 TSNO
KT35 141655Z AUTO 20010G15KT 10SM CLR 35/21 A2994 RMK AO2 T03460210 TSNO
KT35 141755Z AUTO 23009G16KT 200V260 10SM CLR 37/19 A2992 RMK AO2 T03650193 10365 20253 TSNO
KT35 141855Z AUTO 20010G15KT 10SM CLR 38/19 A2990 RMK AO2 T03780188 TSNO
KT35 141955Z AUTO 14003KT 10SM CLR 39/17 A2988 RMK AO2 T03870169 TSNO
KT35 142055Z AUTO 18010KT 10SM CLR 40/17 A2985 RMK AO2 T03960173 TSNO
KT35 142155Z AUTO 15006G15KT 10SM CLR 40/17 A2982 RMK AO2 T03950165 TSNO
KT35 142255Z AUTO 18009KT 10SM CLR 39/17 A2981 RMK AO2 T03930168 TSNO
KT35 142355Z AUTO 16007KT 10SM CLR 39/16 A2981 RMK AO2 T03860160 10401 20364 TSNO
KT35 150055Z AUTO 16006KT 10SM CLR 37/17 A2982 RMK AO2 T03660165 TSNO
KT35 150155Z AUTO 16005KT 10SM CLR 34/18 A2983 RMK AO2 T03420178 TSNO